CheckWX is a tool to help pilots better visualize weather data.  It is not intended as a substitute for an official pre-flight weather briefing.

00:13:25 UTC

LQSA TAF
Sarajevo International Airport
Sarajevo, Bosnia and Herzegovina
TAF LQSA 242300Z 2500/2524 12004KT CAVOK TX18/2514Z TNM02/2505Z PROB40 2503/2508 3000 BR TEMPO 2511/2522 23012KT

Feb-25@
00:00 UTC

Feb-25 @ 00:00 UTC

Feb-26@
00:00 UTC

Feb-26 @ 00:00 UTC

TAF LQSA 242300Z 2500/2524 12004KT CAVOK TX18/2514Z TNM02/2505Z
Wind
  • 120° at 4 KTS
Cloud Levels
  • No significant clouds

Feb-25@
03:00 UTC

Feb-25 @ 03:00 UTC

Feb-25@
08:00 UTC

Feb-25 @ 08:00 UTC

PROB40 2503/2508 3000 BR

Probable - 40% Likelihood

Probable - 40% Likelihood during this time.

Conditions
Mist

Feb-25@
11:00 UTC

Feb-25 @ 11:00 UTC

Feb-25@
22:00 UTC

Feb-25 @ 22:00 UTC

TEMPO 2511/2522 23012KT

Temporary

Temporary Changes expected for less than half the time period

Wind
  • 230° at 12 KTS